Time;durP1;ratioP1;P1;durP2;ratioP2;P2;SDS_P1;SDS_P2;PMS_P1;PMS_P2;Temp;Humidity;BMP_temperature;BMP_pressure;BME280_temperature;BME280_humidity;BME280_pressure;Samples;Min_cycle;Max_cycle;Signal;HPM_P1;HPM_P2
2023/01/29 00:01:04;;;;;;;20.83;10.40;;;;;;;;;;6191503;23;20023;-87
2023/01/29 00:03:30;;;;;;;20.05;10.95;;;;;;;;;;6183983;23;20780;-87
2023/01/29 00:05:55;;;;;;;22.10;10.57;;;;;;;;;;6198251;23;20397;-86
2023/01/29 00:08:21;;;;;;;22.02;10.20;;;;;;;;;;6180231;23;20001;-86
2023/01/29 00:10:46;;;;;;;19.98;9.73;;;;;;;;;;6185795;23;20009;-87
2023/01/29 00:13:12;;;;;;;22.45;10.32;;;;;;;;;;6191768;23;20004;-87
2023/01/29 00:15:38;;;;;;;18.50;9.95;;;;;;;;;;6198929;23;20005;-87
2023/01/29 00:18:03;;;;;;;20.52;10.20;;;;;;;;;;6200146;23;20001;-87
2023/01/29 00:20:29;;;;;;;18.08;9.10;;;;;;;;;;6209934;23;19997;-85
2023/01/29 00:22:55;;;;;;;22.13;10.38;;;;;;;;;;6212203;23;20004;-86
2023/01/29 00:25:20;;;;;;;20.77;10.43;;;;;;;;;;6203140;23;20009;-86
2023/01/29 00:27:46;;;;;;;17.48;9.50;;;;;;;;;;6195356;23;20005;-88
2023/01/29 00:30:11;;;;;;;21.25;10.05;;;;;;;;;;6186283;23;20095;-89
2023/01/29 00:32:38;;;;;;;20.98;10.73;;;;;;;;;;6189893;23;20001;-88
2023/01/29 00:35:06;;;;;;;19.60;9.80;;;;;;;;;;6186833;23;20037;-88
2023/01/29 00:37:32;;;;;;;19.83;9.80;;;;;;;;;;6183230;23;20034;-89
2023/01/29 00:39:57;;;;;;;22.60;10.02;;;;;;;;;;6188812;23;20416;-87
2023/01/29 00:45:07;;;;;;;16.85;9.40;;;;;;;;;;6202380;23;20031;-86
2023/01/29 00:47:33;;;;;;;20.02;10.05;;;;;;;;;;6187013;23;20001;-88
2023/01/29 00:50:00;;;;;;;18.02;10.07;;;;;;;;;;6158357;23;20009;-87
2023/01/29 00:52:25;;;;;;;19.05;9.73;;;;;;;;;;6184593;23;20001;-85
2023/01/29 00:54:51;;;;;;;19.75;10.00;;;;;;;;;;6184220;23;20470;-87
2023/01/29 00:57:17;;;;;;;19.13;9.50;;;;;;;;;;6184352;23;20077;-89
2023/01/29 00:59:42;;;;;;;21.48;10.73;;;;;;;;;;6184527;23;20005;-88
2023/01/29 01:04:52;;;;;;;19.73;9.38;;;;;;;;;;6201716;23;20360;-89
2023/01/29 01:07:17;;;;;;;16.52;9.63;;;;;;;;;;6184768;23;20001;-87
2023/01/29 01:12:27;;;;;;;17.20;9.45;;;;;;;;;;6185647;23;20348;-89
2023/01/29 01:14:52;;;;;;;18.40;9.23;;;;;;;;;;6164949;23;20083;-88
2023/01/29 01:17:18;;;;;;;19.40;9.60;;;;;;;;;;6184561;23;20340;-88
2023/01/29 01:19:45;;;;;;;17.13;9.05;;;;;;;;;;6184112;23;20440;-88
2023/01/29 01:22:10;;;;;;;18.00;9.40;;;;;;;;;;6183892;23;20095;-87
2023/01/29 01:24:36;;;;;;;17.88;8.73;;;;;;;;;;6188498;23;20009;-87
2023/01/29 01:27:02;;;;;;;16.08;8.43;;;;;;;;;;6184595;23;20001;-86
2023/01/29 01:29:27;;;;;;;19.20;9.57;;;;;;;;;;6182941;23;20001;-89
2023/01/29 01:31:53;;;;;;;16.83;8.60;;;;;;;;;;6184020;23;20086;-88
2023/01/29 01:34:18;;;;;;;15.38;8.45;;;;;;;;;;6182315;23;20083;-88
2023/01/29 01:36:44;;;;;;;17.25;8.60;;;;;;;;;;6184103;23;20413;-86
2023/01/29 01:39:09;;;;;;;15.02;7.57;;;;;;;;;;6183701;23;20100;-88
2023/01/29 01:41:34;;;;;;;12.75;7.97;;;;;;;;;;6183409;23;20052;-88
2023/01/29 01:44:01;;;;;;;11.60;7.13;;;;;;;;;;6190662;23;20037;-87
2023/01/29 01:46:34;;;;;;;14.25;7.80;;;;;;;;;;6185798;23;19997;-87
2023/01/29 01:49:09;;;;;;;12.32;6.50;;;;;;;;;;6185194;23;20092;-87
2023/01/29 01:51:36;;;;;;;12.68;7.07;;;;;;;;;;6185863;23;20009;-89
2023/01/29 01:54:05;;;;;;;13.23;7.00;;;;;;;;;;6184983;23;20008;-89
2023/01/29 01:56:37;;;;;;;13.43;7.20;;;;;;;;;;6160639;23;19997;-88
2023/01/29 01:59:04;;;;;;;12.73;7.38;;;;;;;;;;6161068;23;20008;-88
2023/01/29 02:01:29;;;;;;;12.02;7.03;;;;;;;;;;6169405;23;20005;-88
2023/01/29 02:09:35;;;;;;;14.82;8.57;;;;;;;;;;6190505;23;20010;-88
2023/01/29 02:12:05;;;;;;;19.23;9.27;;;;;;;;;;6167362;23;19997;-85
2023/01/29 02:14:33;;;;;;;17.95;9.43;;;;;;;;;;6210245;23;20020;-86
2023/01/29 02:17:01;;;;;;;16.38;8.70;;;;;;;;;;6209944;23;20012;-88
2023/01/29 02:19:54;;;;;;;16.30;8.13;;;;;;;;;;6168637;23;20055;-90
2023/01/29 02:22:38;;;;;;;15.13;8.40;;;;;;;;;;6199755;23;20016;-88
2023/01/29 02:25:22;;;;;;;15.70;8.27;;;;;;;;;;6189918;23;20416;-89
2023/01/29 02:27:51;;;;;;;14.18;7.95;;;;;;;;;;6188732;23;20411;-89
2023/01/29 02:30:35;;;;;;;17.13;8.70;;;;;;;;;;6186923;23;20015;-88
2023/01/29 02:33:08;;;;;;;13.70;7.78;;;;;;;;;;6184508;23;20009;-87
2023/01/29 02:35:37;;;;;;;13.80;7.85;;;;;;;;;;6159062;23;20035;-89
2023/01/29 02:38:21;;;;;;;15.02;7.82;;;;;;;;;;6160305;23;20011;-87
2023/01/29 02:40:51;;;;;;;12.52;7.18;;;;;;;;;;6199585;23;20001;-86
2023/01/29 02:43:38;;;;;;;12.15;7.32;;;;;;;;;;6195159;23;20069;-89
2023/01/29 02:46:18;;;;;;;12.85;7.05;;;;;;;;;;6193533;23;20052;-87
2023/01/29 02:49:19;;;;;;;10.32;6.68;;;;;;;;;;6187087;23;20429;-87
2023/01/29 02:52:08;;;;;;;;;;;;;;;;;;6185526;23;20017;-89
2023/01/29 02:54:44;;;;;;;11.82;6.50;;;;;;;;;;6183646;23;19916;-88
2023/01/29 02:57:19;;;;;;;11.30;6.28;;;;;;;;;;6186596;23;20706;-89
2023/01/29 03:00:11;;;;;;;14.05;7.03;;;;;;;;;;6189484;23;20328;-87
2023/01/29 03:03:03;;;;;;;10.98;6.53;;;;;;;;;;6196496;23;20009;-87
2023/01/29 03:05:55;;;;;;;11.15;6.10;;;;;;;;;;6185142;23;19997;-87
2023/01/29 03:08:41;;;;;;;12.90;6.72;;;;;;;;;;6187850;23;20005;-87
2023/01/29 03:11:12;;;;;;;12.40;7.07;;;;;;;;;;6187470;23;20016;-87
2023/01/29 03:13:40;;;;;;;13.90;7.18;;;;;;;;;;6177882;23;20005;-87
2023/01/29 03:16:13;;;;;;;15.40;8.02;;;;;;;;;;6191021;23;20005;-86
2023/01/29 03:18:44;;;;;;;17.60;8.77;;;;;;;;;;6186668;23;20036;-88
2023/01/29 03:32:09;;;;;;;12.05;7.18;;;;;;;;;;6162027;23;20020;-88
2023/01/29 03:34:42;;;;;;;14.40;8.10;;;;;;;;;;6158645;23;20001;-86
2023/01/29 03:37:14;;;;;;;15.20;8.63;;;;;;;;;;6135171;23;20009;-88
2023/01/29 03:39:39;;;;;;;15.52;8.43;;;;;;;;;;6194535;23;20001;-88
2023/01/29 03:42:28;;;;;;;18.70;8.82;;;;;;;;;;6160328;23;20008;-88
2023/01/29 03:45:07;;;;;;;14.68;8.80;;;;;;;;;;6183692;23;20369;-89
2023/01/29 03:47:50;;;;;;;16.30;9.15;;;;;;;;;;6160067;23;20005;-88
2023/01/29 03:50:22;;;;;;;14.85;8.95;;;;;;;;;;6184211;23;20016;-88
2023/01/29 03:53:09;;;;;;;16.42;8.77;;;;;;;;;;6183073;23;20348;-88
2023/01/29 03:55:40;;;;;;;17.65;9.85;;;;;;;;;;6161623;23;20039;-87
2023/01/29 03:58:29;;;;;;;17.92;8.73;;;;;;;;;;6159570;23;20337;-87
2023/01/29 04:01:22;;;;;;;15.35;8.25;;;;;;;;;;6193709;23;20055;-89
2023/01/29 04:03:53;;;;;;;17.77;9.40;;;;;;;;;;6128372;23;20005;-87
2023/01/29 04:06:23;;;;;;;16.10;9.60;;;;;;;;;;6158894;23;20005;-89
2023/01/29 04:09:27;;;;;;;16.63;10.02;;;;;;;;;;6158146;23;20083;-88
2023/01/29 04:12:06;;;;;;;18.08;9.32;;;;;;;;;;6134140;23;20012;-87
2023/01/29 04:14:31;;;;;;;23.38;9.73;;;;;;;;;;6153390;23;20403;-88
2023/01/29 04:16:56;;;;;;;16.90;9.57;;;;;;;;;;6183048;23;20005;-87
2023/01/29 04:19:22;;;;;;;15.40;8.73;;;;;;;;;;6167678;23;20356;-89
2023/01/29 04:21:48;;;;;;;14.63;7.72;;;;;;;;;;6184696;23;20009;-88
2023/01/29 04:24:13;;;;;;;12.57;7.68;;;;;;;;;;6160085;23;20032;-88
2023/01/29 04:27:04;;;;;;;12.88;7.45;;;;;;;;;;6183995;23;20063;-89
2023/01/29 04:30:21;;;;;;;11.63;7.45;;;;;;;;;;6187107;23;20010;-87
2023/01/29 04:33:03;;;;;;;13.95;7.88;;;;;;;;;;6082494;23;20062;-88
2023/01/29 04:35:47;;;;;;;13.63;7.88;;;;;;;;;;6176590;23;20005;-88
2023/01/29 04:38:42;;;;;;;17.23;8.23;;;;;;;;;;6171637;23;20001;-87
2023/01/29 04:41:15;;;;;;;14.00;8.10;;;;;;;;;;6187913;23;20005;-88
2023/01/29 04:44:04;;;;;;;19.75;8.32;;;;;;;;;;6188995;23;20005;-87
2023/01/29 04:46:54;;;;;;;15.70;9.40;;;;;;;;;;6188238;23;20005;-88
2023/01/29 04:49:28;;;;;;;15.98;9.27;;;;;;;;;;6188353;23;20005;-88
2023/01/29 04:52:06;;;;;;;16.52;9.00;;;;;;;;;;6189071;23;20083;-87
2023/01/29 04:54:51;;;;;;;17.63;9.50;;;;;;;;;;6186986;23;20448;-87
2023/01/29 04:57:34;;;;;;;18.17;10.48;;;;;;;;;;6195675;23;20005;-88
2023/01/29 05:00:09;;;;;;;19.75;10.32;;;;;;;;;;6191593;23;20001;-89
2023/01/29 05:02:36;;;;;;;18.58;10.50;;;;;;;;;;6168348;23;20064;-87
2023/01/29 05:05:05;;;;;;;19.17;10.32;;;;;;;;;;6163844;23;20080;-88
2023/01/29 05:07:30;;;;;;;21.52;11.30;;;;;;;;;;6188262;23;20005;-88
2023/01/29 05:09:56;;;;;;;19.67;10.88;;;;;;;;;;6133327;23;20100;-88
2023/01/29 05:12:21;;;;;;;23.00;11.88;;;;;;;;;;6182671;23;20018;-87
2023/01/29 05:14:46;;;;;;;20.42;10.80;;;;;;;;;;6161043;23;20005;-88
2023/01/29 05:17:16;;;;;;;19.73;10.93;;;;;;;;;;6165754;23;20001;-88
2023/01/29 05:19:42;;;;;;;22.17;11.68;;;;;;;;;;6193881;23;20005;-87
2023/01/29 05:22:08;;;;;;;20.05;10.57;;;;;;;;;;6199873;23;20059;-87
2023/01/29 05:24:34;;;;;;;21.88;11.38;;;;;;;;;;6185631;23;20001;-86
2023/01/29 05:29:46;;;;;;;24.35;12.23;;;;;;;;;;6194843;23;20016;-89
2023/01/29 05:32:12;;;;;;;26.40;13.40;;;;;;;;;;6162600;23;19997;-86
2023/01/29 05:34:38;;;;;;;26.02;14.05;;;;;;;;;;6193809;23;20012;-87
2023/01/29 05:37:03;;;;;;;28.23;14.25;;;;;;;;;;6198379;23;20001;-88
2023/01/29 05:39:29;;;;;;;29.08;16.00;;;;;;;;;;6185817;23;20009;-88
2023/01/29 05:41:54;;;;;;;30.92;16.00;;;;;;;;;;6184874;23;20038;-87
2023/01/29 05:44:19;;;;;;;29.90;15.90;;;;;;;;;;6183823;23;20005;-89
2023/01/29 05:46:45;;;;;;;31.63;15.23;;;;;;;;;;6185609;23;20005;-88
2023/01/29 05:49:11;;;;;;;34.83;15.95;;;;;;;;;;6184308;23;20099;-88
2023/01/29 05:51:36;;;;;;;37.97;17.23;;;;;;;;;;6158731;23;20450;-89
2023/01/29 05:54:02;;;;;;;36.83;17.67;;;;;;;;;;6186246;23;20343;-87
2023/01/29 05:56:27;;;;;;;35.08;17.20;;;;;;;;;;6198580;23;20001;-89
2023/01/29 05:58:53;;;;;;;35.58;15.90;;;;;;;;;;6193522;23;20328;-87
2023/01/29 06:01:21;;;;;;;33.60;16.73;;;;;;;;;;6188023;23;20012;-88
2023/01/29 06:03:46;;;;;;;33.08;16.73;;;;;;;;;;6186701;23;20029;-89
2023/01/29 06:06:12;;;;;;;37.83;17.45;;;;;;;;;;6188104;23;20012;-85
2023/01/29 06:08:37;;;;;;;39.28;17.73;;;;;;;;;;6194171;23;20005;-88
2023/01/29 06:11:03;;;;;;;38.42;19.40;;;;;;;;;;6187461;23;20005;-87
2023/01/29 06:13:29;;;;;;;42.50;19.67;;;;;;;;;;6160790;23;20028;-88
2023/01/29 06:15:54;;;;;;;42.10;19.90;;;;;;;;;;6198327;23;20005;-86
2023/01/29 06:18:19;;;;;;;44.83;20.63;;;;;;;;;;6180402;23;20016;-88
2023/01/29 06:21:04;;;;;;;55.75;27.08;;;;;;;;;;6183974;23;20340;-89
2023/01/29 06:23:31;;;;;;;49.60;23.33;;;;;;;;;;6185238;23;20005;-88
2023/01/29 06:26:12;;;;;;;50.83;24.85;;;;;;;;;;6158947;23;20091;-87
2023/01/29 06:28:38;;;;;;;48.20;23.63;;;;;;;;;;6185477;23;20035;-87
2023/01/29 06:31:04;;;;;;;54.78;24.42;;;;;;;;;;6184444;23;20009;-89
2023/01/29 06:33:30;;;;;;;50.28;21.98;;;;;;;;;;6188404;23;20028;-88
2023/01/29 06:35:56;;;;;;;51.47;22.95;;;;;;;;;;6167332;23;20005;-87
2023/01/29 06:38:22;;;;;;;54.72;22.05;;;;;;;;;;6185513;23;20011;-86
2023/01/29 06:40:47;;;;;;;54.50;24.23;;;;;;;;;;6184093;23;20037;-87
2023/01/29 06:43:13;;;;;;;52.50;24.38;;;;;;;;;;6185231;23;20068;-87
2023/01/29 06:45:46;;;;;;;53.92;24.20;;;;;;;;;;6184922;23;20005;-86
2023/01/29 06:48:11;;;;;;;56.83;24.65;;;;;;;;;;6184753;23;20044;-86
2023/01/29 06:50:37;;;;;;;51.55;26.13;;;;;;;;;;6184964;23;20079;-85
2023/01/29 06:53:02;;;;;;;53.72;24.48;;;;;;;;;;6192095;23;20005;-86
2023/01/29 06:55:27;;;;;;;51.35;23.08;;;;;;;;;;6191221;23;20083;-86
2023/01/29 06:57:53;;;;;;;48.50;22.90;;;;;;;;;;6185120;23;20077;-86
2023/01/29 07:00:19;;;;;;;49.15;21.90;;;;;;;;;;6184929;23;20005;-87
2023/01/29 07:02:48;;;;;;;48.90;22.63;;;;;;;;;;6185116;23;20429;-88
2023/01/29 07:05:13;;;;;;;47.78;21.73;;;;;;;;;;6185822;23;20477;-88
2023/01/29 07:07:39;;;;;;;53.38;21.98;;;;;;;;;;6186367;23;20005;-88
2023/01/29 07:10:05;;;;;;;46.30;22.20;;;;;;;;;;6187678;23;20005;-88
2023/01/29 07:12:30;;;;;;;45.13;21.75;;;;;;;;;;6169166;23;20053;-87
2023/01/29 07:14:56;;;;;;;46.22;20.92;;;;;;;;;;6193608;23;20012;-87
2023/01/29 07:17:21;;;;;;;44.70;19.05;;;;;;;;;;6188801;23;20405;-88
2023/01/29 07:19:46;;;;;;;41.88;19.05;;;;;;;;;;6181051;23;20441;-88
2023/01/29 07:22:13;;;;;;;50.13;21.83;;;;;;;;;;6182480;23;20008;-87
2023/01/29 07:24:38;;;;;;;50.70;23.98;;;;;;;;;;6184656;23;20412;-87
2023/01/29 07:27:04;;;;;;;50.50;24.38;;;;;;;;;;6185463;23;20005;-88
2023/01/29 07:29:29;;;;;;;57.13;25.27;;;;;;;;;;6184892;23;20001;-88
2023/01/29 07:31:55;;;;;;;49.22;23.90;;;;;;;;;;6189274;23;20005;-87
2023/01/29 07:34:20;;;;;;;49.60;23.85;;;;;;;;;;6192996;23;20001;-87
2023/01/29 07:36:45;;;;;;;44.55;20.70;;;;;;;;;;6183240;23;20066;-89
2023/01/29 07:39:11;;;;;;;44.83;20.80;;;;;;;;;;6184414;23;20149;-88
2023/01/29 07:41:36;;;;;;;48.05;21.50;;;;;;;;;;6185029;23;20005;-87
2023/01/29 07:44:02;;;;;;;44.75;19.40;;;;;;;;;;6184588;23;20005;-88
2023/01/29 07:46:27;;;;;;;38.08;18.70;;;;;;;;;;6183784;23;20417;-87
2023/01/29 07:48:54;;;;;;;39.22;17.80;;;;;;;;;;6184357;23;20005;-88
2023/01/29 07:51:20;;;;;;;36.55;17.13;;;;;;;;;;6189748;23;20013;-85
2023/01/29 07:53:46;;;;;;;31.25;14.85;;;;;;;;;;6192591;23;20001;-88
2023/01/29 07:56:11;;;;;;;28.83;13.00;;;;;;;;;;6184929;23;20005;-88
2023/01/29 07:58:37;;;;;;;26.48;12.30;;;;;;;;;;6184576;23;20043;-88
2023/01/29 08:01:08;;;;;;;26.15;12.20;;;;;;;;;;6188770;23;20001;-86
2023/01/29 08:03:34;;;;;;;26.55;12.40;;;;;;;;;;6184986;23;20356;-87
2023/01/29 08:06:00;;;;;;;25.33;12.35;;;;;;;;;;6185356;23;20029;-87
2023/01/29 08:08:25;;;;;;;27.33;13.15;;;;;;;;;;6182662;23;20009;-88
2023/01/29 08:10:51;;;;;;;34.20;13.18;;;;;;;;;;6191156;23;20001;-87
2023/01/29 08:13:16;;;;;;;30.10;14.25;;;;;;;;;;6190532;23;20032;-86
2023/01/29 08:15:45;;;;;;;25.92;12.15;;;;;;;;;;6184390;23;20008;-85
2023/01/29 08:18:11;;;;;;;27.00;12.60;;;;;;;;;;6184292;23;20001;-88
2023/01/29 08:20:36;;;;;;;26.95;12.68;;;;;;;;;;6184693;23;20986;-88
2023/01/29 08:23:04;;;;;;;26.25;12.77;;;;;;;;;;6153421;23;20001;-85
2023/01/29 08:25:32;;;;;;;25.80;12.52;;;;;;;;;;6158455;23;20009;-87
2023/01/29 08:27:58;;;;;;;30.10;14.68;;;;;;;;;;6184131;23;20004;-87
2023/01/29 08:30:46;;;;;;;32.78;15.77;;;;;;;;;;6190213;23;20013;-87
2023/01/29 08:33:12;;;;;;;31.08;15.27;;;;;;;;;;6188792;23;20020;-89
2023/01/29 08:35:39;;;;;;;28.90;14.88;;;;;;;;;;6182891;23;20401;-87
2023/01/29 08:38:05;;;;;;;31.90;16.85;;;;;;;;;;6157935;23;20080;-88
2023/01/29 08:40:32;;;;;;;48.47;22.05;;;;;;;;;;6185093;23;20071;-86
2023/01/29 08:43:02;;;;;;;31.17;14.70;;;;;;;;;;6182347;23;20092;-84
2023/01/29 08:45:27;;;;;;;37.07;16.57;;;;;;;;;;6182383;23;19997;-86
2023/01/29 08:47:53;;;;;;;34.38;16.83;;;;;;;;;;6183357;23;20100;-88
2023/01/29 08:50:18;;;;;;;30.90;15.15;;;;;;;;;;6196289;23;20040;-88
2023/01/29 08:52:44;;;;;;;29.13;13.75;;;;;;;;;;6184467;23;20001;-88
2023/01/29 08:55:10;;;;;;;30.25;13.65;;;;;;;;;;6158948;23;20006;-89
2023/01/29 08:57:36;;;;;;;41.95;20.05;;;;;;;;;;6159872;23;20025;-89
2023/01/29 09:00:02;;;;;;;33.63;14.93;;;;;;;;;;6184842;23;20436;-89
2023/01/29 09:02:28;;;;;;;30.33;13.80;;;;;;;;;;6186128;23;20001;-87
2023/01/29 09:04:53;;;;;;;33.95;15.38;;;;;;;;;;6159653;23;20344;-87
2023/01/29 09:07:20;;;;;;;29.77;15.05;;;;;;;;;;6185704;23;20448;-88
2023/01/29 09:09:46;;;;;;;31.45;14.60;;;;;;;;;;6195328;23;20021;-87
2023/01/29 09:12:11;;;;;;;35.33;15.40;;;;;;;;;;6185409;23;20008;-86
2023/01/29 09:14:37;;;;;;;28.65;14.55;;;;;;;;;;6184063;23;20005;-89
2023/01/29 09:17:02;;;;;;;27.75;13.27;;;;;;;;;;6184214;23;20012;-86
2023/01/29 09:19:27;;;;;;;31.13;13.90;;;;;;;;;;6186650;23;20005;-85
2023/01/29 09:21:53;;;;;;;26.80;13.35;;;;;;;;;;6159560;23;20101;-87
2023/01/29 09:24:18;;;;;;;29.70;14.13;;;;;;;;;;6185562;23;20012;-88
2023/01/29 09:26:44;;;;;;;29.08;13.90;;;;;;;;;;6186436;23;20456;-88
2023/01/29 09:29:09;;;;;;;25.55;13.10;;;;;;;;;;6200478;23;20004;-87
2023/01/29 09:31:35;;;;;;;27.17;12.75;;;;;;;;;;6190103;23;20001;-87
2023/01/29 09:34:01;;;;;;;25.38;12.52;;;;;;;;;;6185835;23;20012;-88
2023/01/29 09:36:26;;;;;;;28.05;13.27;;;;;;;;;;6184602;23;20080;-89
2023/01/29 09:38:52;;;;;;;30.15;12.73;;;;;;;;;;6186844;23;20083;-89
2023/01/29 09:41:32;;;;;;;28.05;13.70;;;;;;;;;;6186133;23;19997;-88
2023/01/29 09:43:59;;;;;;;;;;;;;;;;;;6186246;23;20033;-85
2023/01/29 09:46:33;;;;;;;27.83;12.95;;;;;;;;;;6184740;23;19904;-85
2023/01/29 09:49:02;;;;;;;26.40;13.68;;;;;;;;;;6194468;23;20056;-88
2023/01/29 09:51:30;;;;;;;22.67;11.82;;;;;;;;;;6184834;23;20013;-85
2023/01/29 09:54:20;;;;;;;65.70;28.77;;;;;;;;;;6163089;23;20553;-89
2023/01/29 09:56:45;;;;;;;58.22;23.13;;;;;;;;;;6194330;23;20074;-85
2023/01/29 09:59:12;;;;;;;91.47;31.02;;;;;;;;;;6194735;23;20053;-89
2023/01/29 10:01:45;;;;;;;70.25;26.35;;;;;;;;;;6189134;23;20116;-85
2023/01/29 10:04:20;;;;;;;31.38;14.57;;;;;;;;;;6194317;23;19989;-85
2023/01/29 10:07:03;;;;;;;29.83;14.52;;;;;;;;;;6206308;23;20057;-88
2023/01/29 10:09:38;;;;;;;37.95;16.75;;;;;;;;;;6212225;23;20016;-84
2023/01/29 10:12:32;;;;;;;35.03;16.73;;;;;;;;;;6212234;23;20063;-84
2023/01/29 10:15:26;;;;;;;38.25;17.63;;;;;;;;;;6191914;23;20013;-87
2023/01/29 10:18:29;;;;;;;28.73;12.43;;;;;;;;;;6214008;23;19996;-85
2023/01/29 10:21:03;;;;;;;23.42;12.05;;;;;;;;;;6212927;23;19993;-85
2023/01/29 10:23:31;;;;;;;27.45;13.18;;;;;;;;;;6212762;23;20027;-86
2023/01/29 10:25:56;;;;;;;42.92;19.15;;;;;;;;;;6188528;23;20005;-87
2023/01/29 10:28:44;;;;;;;36.13;17.25;;;;;;;;;;6208471;23;20016;-85
2023/01/29 10:31:11;;;;;;;34.08;16.00;;;;;;;;;;6210352;23;20083;-86
2023/01/29 10:33:40;;;;;;;33.47;15.40;;;;;;;;;;6200331;23;20472;-87
2023/01/29 10:36:09;;;;;;;34.95;17.20;;;;;;;;;;6211010;23;20013;-89
2023/01/29 10:38:46;;;;;;;36.90;16.67;;;;;;;;;;6203869;23;19997;-90
2023/01/29 10:41:24;;;;;;;30.98;15.32;;;;;;;;;;6188578;23;20012;-88
2023/01/29 10:44:18;;;;;;;28.58;14.07;;;;;;;;;;6201600;23;19996;-86
2023/01/29 10:46:49;;;;;;;29.65;15.23;;;;;;;;;;6187811;23;20005;-90
2023/01/29 10:49:27;;;;;;;30.88;15.25;;;;;;;;;;6185224;23;19997;-85
2023/01/29 10:52:12;;;;;;;29.60;14.55;;;;;;;;;;6184961;23;20020;-86
2023/01/29 10:54:57;;;;;;;32.47;17.73;;;;;;;;;;6184274;23;20001;-87
2023/01/29 10:58:04;;;;;;;40.40;22.52;;;;;;;;;;6184808;23;20005;-86
2023/01/29 11:00:38;;;;;;;25.88;13.13;;;;;;;;;;6183140;23;20440;-88
2023/01/29 11:03:23;;;;;;;31.25;13.18;;;;;;;;;;6185124;23;20063;-86
2023/01/29 11:06:24;;;;;;;29.77;14.05;;;;;;;;;;6187203;23;20453;-87
2023/01/29 11:09:07;;;;;;;25.13;11.98;;;;;;;;;;6183365;23;20439;-87
2023/01/29 11:11:39;;;;;;;31.60;14.88;;;;;;;;;;6183659;23;20041;-86
2023/01/29 11:14:08;;;;;;;32.70;13.60;;;;;;;;;;6185203;23;20483;-87
2023/01/29 11:16:45;;;;;;;27.05;12.15;;;;;;;;;;6185075;23;19997;-89
2023/01/29 11:19:11;;;;;;;28.83;14.18;;;;;;;;;;6184714;23;20005;-89
2023/01/29 11:21:59;;;;;;;30.38;14.25;;;;;;;;;;6184279;23;20423;-87
2023/01/29 11:24:25;;;;;;;27.92;12.63;;;;;;;;;;6162972;23;20012;-85
2023/01/29 11:26:52;;;;;;;27.10;12.15;;;;;;;;;;6159981;23;19993;-86
2023/01/29 11:29:49;;;;;;;31.55;14.52;;;;;;;;;;6158936;23;20005;-88
2023/01/29 11:32:20;;;;;;;27.13;13.40;;;;;;;;;;6184313;23;20441;-90
2023/01/29 11:35:18;;;;;;;33.22;15.05;;;;;;;;;;6184687;23;20060;-86
2023/01/29 11:37:44;;;;;;;35.38;14.57;;;;;;;;;;6183780;23;20336;-86
2023/01/29 11:40:19;;;;;;;32.20;14.25;;;;;;;;;;6133972;23;20126;-89
2023/01/29 11:42:45;;;;;;;29.65;12.35;;;;;;;;;;6189008;23;20364;-87
2023/01/29 11:45:26;;;;;;;34.33;14.32;;;;;;;;;;6187438;23;20001;-90
2023/01/29 11:47:53;;;;;;;28.98;13.60;;;;;;;;;;6183408;23;20009;-87
2023/01/29 11:50:29;;;;;;;38.30;14.55;;;;;;;;;;6163908;23;20028;-86
2023/01/29 11:52:55;;;;;;;33.17;14.10;;;;;;;;;;6188318;23;20080;-86
2023/01/29 11:55:24;;;;;;;28.73;14.02;;;;;;;;;;6183334;23;20004;-85
2023/01/29 11:58:15;;;;;;;38.10;15.48;;;;;;;;;;6183487;23;20009;-86
2023/01/29 12:00:41;;;;;;;35.08;15.88;;;;;;;;;;6158423;23;20396;-89
2023/01/29 12:03:14;;;;;;;72.22;27.15;;;;;;;;;;6167729;23;20009;-87
2023/01/29 12:05:40;;;;;;;82.85;31.17;;;;;;;;;;6186714;23;19993;-86
2023/01/29 12:08:14;;;;;;;72.97;28.48;;;;;;;;;;6159743;23;20476;-85
2023/01/29 12:10:40;;;;;;;50.83;22.92;;;;;;;;;;6183720;23;20043;-87
2023/01/29 12:13:09;;;;;;;37.78;17.42;;;;;;;;;;6184966;23;20005;-89
2023/01/29 12:15:39;;;;;;;36.72;17.23;;;;;;;;;;6179613;23;20436;-87
2023/01/29 12:18:34;;;;;;;46.95;19.70;;;;;;;;;;6158545;23;20009;-84
2023/01/29 12:21:21;;;;;;;33.30;14.80;;;;;;;;;;6186918;23;20467;-86
2023/01/29 12:23:56;;;;;;;34.70;16.40;;;;;;;;;;6197847;23;20032;-88
2023/01/29 12:26:33;;;;;;;35.80;15.65;;;;;;;;;;6192524;23;20001;-89
2023/01/29 12:29:36;;;;;;;38.42;17.00;;;;;;;;;;6170764;23;20399;-85
2023/01/29 12:32:39;;;;;;;35.85;14.73;;;;;;;;;;6184570;23;20001;-84
2023/01/29 12:35:22;;;;;;;39.58;16.73;;;;;;;;;;6211214;23;20016;-84
2023/01/29 12:38:01;;;;;;;41.38;17.95;;;;;;;;;;6204839;23;20001;-86
2023/01/29 12:40:45;;;;;;;38.90;16.73;;;;;;;;;;6208085;23;20009;-87
2023/01/29 12:43:15;;;;;;;39.58;16.20;;;;;;;;;;6195412;23;20005;-85
2023/01/29 12:45:41;;;;;;;36.58;16.55;;;;;;;;;;6192318;23;20044;-86
2023/01/29 12:48:19;;;;;;;40.78;17.33;;;;;;;;;;6164098;23;20121;-89
2023/01/29 12:50:45;;;;;;;36.13;15.32;;;;;;;;;;6160513;23;20005;-87
2023/01/29 12:53:32;;;;;;;39.30;16.75;;;;;;;;;;6186107;23;20425;-87
2023/01/29 12:55:59;;;;;;;38.42;17.15;;;;;;;;;;6159912;23;20001;-86
2023/01/29 12:58:34;;;;;;;29.13;15.02;;;;;;;;;;6183343;23;20091;-87
2023/01/29 13:01:11;;;;;;;30.65;14.07;;;;;;;;;;6189969;23;20005;-86
2023/01/29 13:04:05;;;;;;;34.75;16.05;;;;;;;;;;6184908;23;20005;-86
2023/01/29 13:06:40;;;;;;;35.03;16.20;;;;;;;;;;6182614;23;20013;-87
2023/01/29 13:09:07;;;;;;;34.72;15.80;;;;;;;;;;6182532;23;20088;-86
2023/01/29 13:12:00;;;;;;;39.50;16.55;;;;;;;;;;6159215;23;20428;-86
2023/01/29 13:14:43;;;;;;;30.95;15.63;;;;;;;;;;6169874;23;20124;-86
2023/01/29 13:17:13;;;;;;;33.92;13.60;;;;;;;;;;6178843;23;20456;-89
2023/01/29 13:19:47;;;;;;;31.60;14.50;;;;;;;;;;6167333;23;20393;-89
2023/01/29 13:22:24;;;;;;;32.60;15.27;;;;;;;;;;6166100;23;20001;-89
2023/01/29 13:24:50;;;;;;;33.95;15.43;;;;;;;;;;6190557;23;20016;-86
2023/01/29 13:27:28;;;;;;;30.95;14.68;;;;;;;;;;6184479;23;19998;-90
2023/01/29 13:29:55;;;;;;;31.65;14.63;;;;;;;;;;6134464;23;20016;-87
2023/01/29 13:32:24;;;;;;;33.08;14.77;;;;;;;;;;6183606;23;20005;-88
2023/01/29 13:34:50;;;;;;;40.77;17.30;;;;;;;;;;6159293;23;20347;-87
2023/01/29 13:37:39;;;;;;;38.22;16.38;;;;;;;;;;6185912;23;20009;-86
2023/01/29 13:40:05;;;;;;;41.55;18.05;;;;;;;;;;6188755;23;20005;-85
2023/01/29 13:42:45;;;;;;;39.47;15.75;;;;;;;;;;6191259;23;20009;-88
2023/01/29 13:45:43;;;;;;;36.70;16.40;;;;;;;;;;6191734;23;20001;-87
2023/01/29 13:48:09;;;;;;;35.58;16.08;;;;;;;;;;6184222;23;20005;-86
2023/01/29 13:50:41;;;;;;;41.75;17.90;;;;;;;;;;6191121;23;20008;-86
2023/01/29 13:53:15;;;;;;;39.25;17.75;;;;;;;;;;6166582;23;20032;-84
2023/01/29 13:55:41;;;;;;;36.78;16.75;;;;;;;;;;6163732;23;20040;-89
2023/01/29 13:58:12;;;;;;;38.22;16.58;;;;;;;;;;6190236;23;20415;-90
2023/01/29 14:00:38;;;;;;;38.28;17.90;;;;;;;;;;6179209;23;20029;-85
2023/01/29 14:03:04;;;;;;;33.15;15.52;;;;;;;;;;6197770;23;20001;-88
2023/01/29 14:05:29;;;;;;;37.03;17.33;;;;;;;;;;6186690;23;20012;-87
2023/01/29 14:08:01;;;;;;;50.30;20.73;;;;;;;;;;6186263;23;20352;-85
2023/01/29 14:10:30;;;;;;;45.88;22.55;;;;;;;;;;6189653;23;20096;-86
2023/01/29 14:13:02;;;;;;;41.78;19.15;;;;;;;;;;6190002;23;20000;-88
2023/01/29 14:15:29;;;;;;;66.57;30.45;;;;;;;;;;6187824;23;20417;-86
2023/01/29 14:18:04;;;;;;;56.90;26.88;;;;;;;;;;6188221;23;20005;-89
2023/01/29 14:20:36;;;;;;;59.10;29.42;;;;;;;;;;6198283;23;20001;-85
2023/01/29 14:23:03;;;;;;;55.10;28.73;;;;;;;;;;6163410;23;20076;-87
2023/01/29 14:25:36;;;;;;;44.90;20.25;;;;;;;;;;6186940;23;20336;-85
2023/01/29 14:28:02;;;;;;;39.65;17.95;;;;;;;;;;6185577;23;20001;-88
2023/01/29 14:30:31;;;;;;;41.38;17.77;;;;;;;;;;6186393;23;20062;-84
2023/01/29 14:32:57;;;;;;;46.88;20.05;;;;;;;;;;6189272;23;20001;-85
2023/01/29 14:35:24;;;;;;;40.88;18.27;;;;;;;;;;6188738;23;20481;-86
2023/01/29 14:37:51;;;;;;;43.80;20.23;;;;;;;;;;6199288;23;20008;-88
2023/01/29 14:40:21;;;;;;;44.42;21.33;;;;;;;;;;6193827;23;20044;-90
2023/01/29 14:42:54;;;;;;;47.37;22.57;;;;;;;;;;6187556;23;20067;-89
2023/01/29 14:45:33;;;;;;;56.33;25.80;;;;;;;;;;6185382;23;20056;-90
2023/01/29 14:47:59;;;;;;;54.75;22.77;;;;;;;;;;6184739;23;20325;-90
2023/01/29 14:50:27;;;;;;;75.05;31.33;;;;;;;;;;6186729;23;20012;-89
2023/01/29 14:52:57;;;;;;;64.22;28.65;;;;;;;;;;6184458;23;20009;-90
2023/01/29 14:55:29;;;;;;;101.07;44.77;;;;;;;;;;6167887;23;20012;-89
2023/01/29 14:57:55;;;;;;;56.17;25.92;;;;;;;;;;6190225;23;20005;-89
2023/01/29 15:00:36;;;;;;;55.72;24.58;;;;;;;;;;6162948;23;20005;-89
2023/01/29 15:03:01;;;;;;;74.28;34.33;;;;;;;;;;6185040;23;20028;-89
2023/01/29 15:05:30;;;;;;;53.35;22.92;;;;;;;;;;6159102;23;20387;-87
2023/01/29 15:07:57;;;;;;;53.65;23.45;;;;;;;;;;6164587;23;20008;-89
2023/01/29 15:10:32;;;;;;;60.47;22.83;;;;;;;;;;6207473;23;20029;-87
2023/01/29 15:13:02;;;;;;;49.00;21.23;;;;;;;;;;6196477;23;20466;-87
2023/01/29 15:15:42;;;;;;;46.58;19.85;;;;;;;;;;6198057;23;20016;-88